sensor_id;sensor_type;location;lat;lon;timestamp;P1;durP1;ratioP1;P2;durP2;ratioP2
56523;SDS011;42422;47.540;18.712;2022-09-09T00:02:05;2.35;;;0.80;;
56523;SDS011;42422;47.540;18.712;2022-09-09T00:04:40;1.67;;;1.00;;
56523;SDS011;42422;47.540;18.712;2022-09-09T00:09:46;1.65;;;1.00;;
56523;SDS011;42422;47.540;18.712;2022-09-09T00:12:17;1.88;;;1.10;;
56523;SDS011;42422;47.540;18.712;2022-09-09T00:15:10;1.65;;;0.95;;
56523;SDS011;42422;47.540;18.712;2022-09-09T00:20:13;1.33;;;0.98;;
56523;SDS011;42422;47.540;18.712;2022-09-09T00:22:53;7.18;;;0.98;;
56523;SDS011;42422;47.540;18.712;2022-09-09T00:25:27;3.53;;;1.10;;
56523;SDS011;42422;47.540;18.712;2022-09-09T00:27:59;1.42;;;0.93;;
56523;SDS011;42422;47.540;18.712;2022-09-09T00:30:26;1.58;;;1.00;;
56523;SDS011;42422;47.540;18.712;2022-09-09T00:33:11;1.58;;;1.05;;
56523;SDS011;42422;47.540;18.712;2022-09-09T00:35:41;1.00;;;0.90;;
56523;SDS011;42422;47.540;18.712;2022-09-09T00:38:11;1.20;;;0.80;;
56523;SDS011;42422;47.540;18.712;2022-09-09T00:43:36;2.03;;;1.00;;
56523;SDS011;42422;47.540;18.712;2022-09-09T00:51:29;1.55;;;1.05;;
56523;SDS011;42422;47.540;18.712;2022-09-09T00:54:18;1.70;;;0.98;;
56523;SDS011;42422;47.540;18.712;2022-09-09T00:56:57;1.60;;;1.00;;
56523;SDS011;42422;47.540;18.712;2022-09-09T01:02:13;1.60;;;1.02;;
56523;SDS011;42422;47.540;18.712;2022-09-09T01:04:43;1.80;;;0.98;;
56523;SDS011;42422;47.540;18.712;2022-09-09T01:07:16;3.03;;;1.10;;
56523;SDS011;42422;47.540;18.712;2022-09-09T01:09:53;1.88;;;1.20;;
56523;SDS011;42422;47.540;18.712;2022-09-09T01:20:19;2.15;;;1.30;;
56523;SDS011;42422;47.540;18.712;2022-09-09T01:25:30;2.00;;;1.20;;
56523;SDS011;42422;47.540;18.712;2022-09-09T01:28:03;1.98;;;1.38;;
56523;SDS011;42422;47.540;18.712;2022-09-09T01:30:30;1.70;;;1.08;;
56523;SDS011;42422;47.540;18.712;2022-09-09T01:32:57;1.60;;;1.23;;
56523;SDS011;42422;47.540;18.712;2022-09-09T01:37:56;1.42;;;0.95;;
56523;SDS011;42422;47.540;18.712;2022-09-09T01:43:06;3.90;;;1.40;;
56523;SDS011;42422;47.540;18.712;2022-09-09T01:45:32;1.80;;;1.30;;
56523;SDS011;42422;47.540;18.712;2022-09-09T01:47:58;2.03;;;1.25;;
56523;SDS011;42422;47.540;18.712;2022-09-09T01:50:24;1.45;;;1.00;;
56523;SDS011;42422;47.540;18.712;2022-09-09T01:52:57;2.58;;;1.35;;
56523;SDS011;42422;47.540;18.712;2022-09-09T01:55:28;1.25;;;0.93;;
56523;SDS011;42422;47.540;18.712;2022-09-09T02:00:26;1.40;;;1.10;;
56523;SDS011;42422;47.540;18.712;2022-09-09T02:02:56;1.40;;;0.73;;
56523;SDS011;42422;47.540;18.712;2022-09-09T02:08:01;1.85;;;1.17;;
56523;SDS011;42422;47.540;18.712;2022-09-09T02:13:10;2.72;;;0.80;;
56523;SDS011;42422;47.540;18.712;2022-09-09T02:15:55;2.00;;;1.00;;
56523;SDS011;42422;47.540;18.712;2022-09-09T02:18:27;1.97;;;1.00;;
56523;SDS011;42422;47.540;18.712;2022-09-09T02:20:56;4.28;;;1.20;;
56523;SDS011;42422;47.540;18.712;2022-09-09T02:23:22;1.13;;;0.80;;
56523;SDS011;42422;47.540;18.712;2022-09-09T02:25:48;1.40;;;0.90;;
56523;SDS011;42422;47.540;18.712;2022-09-09T02:28:16;1.83;;;1.20;;
56523;SDS011;42422;47.540;18.712;2022-09-09T02:30:42;1.30;;;0.90;;
56523;SDS011;42422;47.540;18.712;2022-09-09T02:33:11;1.30;;;0.90;;
56523;SDS011;42422;47.540;18.712;2022-09-09T02:35:37;1.77;;;1.20;;
56523;SDS011;42422;47.540;18.712;2022-09-09T02:38:04;1.65;;;0.90;;
56523;SDS011;42422;47.540;18.712;2022-09-09T02:40:33;1.40;;;0.82;;
56523;SDS011;42422;47.540;18.712;2022-09-09T02:42:58;1.67;;;1.00;;
56523;SDS011;42422;47.540;18.712;2022-09-09T02:45:25;4.32;;;1.00;;
56523;SDS011;42422;47.540;18.712;2022-09-09T02:53:47;1.92;;;0.90;;
56523;SDS011;42422;47.540;18.712;2022-09-09T02:56:25;1.58;;;1.08;;
56523;SDS011;42422;47.540;18.712;2022-09-09T02:58:53;11.35;;;1.33;;
56523;SDS011;42422;47.540;18.712;2022-09-09T03:01:19;3.25;;;1.20;;
56523;SDS011;42422;47.540;18.712;2022-09-09T03:03:45;1.40;;;0.80;;
56523;SDS011;42422;47.540;18.712;2022-09-09T03:06:11;4.05;;;1.08;;
56523;SDS011;42422;47.540;18.712;2022-09-09T03:08:37;1.80;;;1.00;;
56523;SDS011;42422;47.540;18.712;2022-09-09T03:11:02;1.83;;;1.13;;
56523;SDS011;42422;47.540;18.712;2022-09-09T03:13:28;2.55;;;1.08;;
56523;SDS011;42422;47.540;18.712;2022-09-09T03:15:53;3.75;;;1.27;;
56523;SDS011;42422;47.540;18.712;2022-09-09T03:18:19;1.92;;;1.02;;
56523;SDS011;42422;47.540;18.712;2022-09-09T03:20:45;2.03;;;1.20;;
56523;SDS011;42422;47.540;18.712;2022-09-09T03:23:13;1.45;;;0.98;;
56523;SDS011;42422;47.540;18.712;2022-09-09T03:25:38;5.88;;;1.52;;
56523;SDS011;42422;47.540;18.712;2022-09-09T03:28:04;1.15;;;0.82;;
56523;SDS011;42422;47.540;18.712;2022-09-09T03:30:30;1.65;;;1.25;;
56523;SDS011;42422;47.540;18.712;2022-09-09T03:32:55;5.53;;;1.52;;
56523;SDS011;42422;47.540;18.712;2022-09-09T03:35:21;3.08;;;1.10;;
56523;SDS011;42422;47.540;18.712;2022-09-09T03:37:47;1.90;;;1.15;;
56523;SDS011;42422;47.540;18.712;2022-09-09T03:40:12;2.05;;;1.40;;
56523;SDS011;42422;47.540;18.712;2022-09-09T03:42:38;1.95;;;1.27;;
56523;SDS011;42422;47.540;18.712;2022-09-09T03:45:04;2.53;;;1.30;;
56523;SDS011;42422;47.540;18.712;2022-09-09T03:47:34;2.20;;;1.20;;
56523;SDS011;42422;47.540;18.712;2022-09-09T03:49:59;2.30;;;1.20;;
56523;SDS011;42422;47.540;18.712;2022-09-09T03:52:25;2.05;;;1.50;;
56523;SDS011;42422;47.540;18.712;2022-09-09T03:54:51;4.05;;;1.33;;
56523;SDS011;42422;47.540;18.712;2022-09-09T03:57:17;2.38;;;1.67;;
56523;SDS011;42422;47.540;18.712;2022-09-09T03:59:43;2.42;;;1.48;;
56523;SDS011;42422;47.540;18.712;2022-09-09T04:02:09;2.08;;;1.33;;
56523;SDS011;42422;47.540;18.712;2022-09-09T04:04:34;2.05;;;1.20;;
56523;SDS011;42422;47.540;18.712;2022-09-09T04:07:00;2.47;;;1.73;;
56523;SDS011;42422;47.540;18.712;2022-09-09T04:09:25;1.88;;;1.13;;
56523;SDS011;42422;47.540;18.712;2022-09-09T04:11:51;4.90;;;1.80;;
56523;SDS011;42422;47.540;18.712;2022-09-09T04:14:17;2.00;;;1.40;;
56523;SDS011;42422;47.540;18.712;2022-09-09T04:16:43;1.83;;;1.48;;
56523;SDS011;42422;47.540;18.712;2022-09-09T04:19:09;2.28;;;1.58;;
56523;SDS011;42422;47.540;18.712;2022-09-09T04:21:37;2.22;;;1.60;;
56523;SDS011;42422;47.540;18.712;2022-09-09T04:24:04;10.80;;;4.50;;
56523;SDS011;42422;47.540;18.712;2022-09-09T04:26:30;23.50;;;6.90;;
56523;SDS011;42422;47.540;18.712;2022-09-09T04:28:55;11.93;;;4.28;;
56523;SDS011;42422;47.540;18.712;2022-09-09T04:31:21;2.60;;;1.83;;
56523;SDS011;42422;47.540;18.712;2022-09-09T04:33:49;3.05;;;2.15;;
56523;SDS011;42422;47.540;18.712;2022-09-09T04:36:15;6.18;;;3.60;;
56523;SDS011;42422;47.540;18.712;2022-09-09T04:38:40;2.90;;;1.90;;
56523;SDS011;42422;47.540;18.712;2022-09-09T04:41:06;2.92;;;1.73;;
56523;SDS011;42422;47.540;18.712;2022-09-09T04:43:32;2.63;;;1.67;;
56523;SDS011;42422;47.540;18.712;2022-09-09T04:45:57;2.92;;;1.80;;
56523;SDS011;42422;47.540;18.712;2022-09-09T04:48:24;2.42;;;1.63;;
56523;SDS011;42422;47.540;18.712;2022-09-09T04:51:00;2.33;;;1.48;;
56523;SDS011;42422;47.540;18.712;2022-09-09T04:53:27;3.83;;;1.73;;
56523;SDS011;42422;47.540;18.712;2022-09-09T04:56:00;2.22;;;1.70;;
56523;SDS011;42422;47.540;18.712;2022-09-09T04:58:32;2.58;;;1.58;;
56523;SDS011;42422;47.540;18.712;2022-09-09T05:01:08;4.15;;;1.90;;
56523;SDS011;42422;47.540;18.712;2022-09-09T05:03:37;1.80;;;1.33;;
56523;SDS011;42422;47.540;18.712;2022-09-09T05:06:07;3.22;;;1.60;;
56523;SDS011;42422;47.540;18.712;2022-09-09T05:08:34;2.05;;;1.50;;
56523;SDS011;42422;47.540;18.712;2022-09-09T05:11:01;3.03;;;1.70;;
56523;SDS011;42422;47.540;18.712;2022-09-09T05:13:26;4.53;;;1.70;;
56523;SDS011;42422;47.540;18.712;2022-09-09T05:15:53;2.35;;;1.60;;
56523;SDS011;42422;47.540;18.712;2022-09-09T05:18:18;2.35;;;1.80;;
56523;SDS011;42422;47.540;18.712;2022-09-09T05:20:44;2.80;;;1.63;;
56523;SDS011;42422;47.540;18.712;2022-09-09T05:23:09;2.47;;;1.60;;
56523;SDS011;42422;47.540;18.712;2022-09-09T05:25:38;2.65;;;1.85;;
56523;SDS011;42422;47.540;18.712;2022-09-09T05:28:05;2.00;;;1.23;;
56523;SDS011;42422;47.540;18.712;2022-09-09T05:30:32;3.45;;;1.60;;
56523;SDS011;42422;47.540;18.712;2022-09-09T05:32:57;2.05;;;1.73;;
56523;SDS011;42422;47.540;18.712;2022-09-09T05:35:23;2.13;;;1.35;;
56523;SDS011;42422;47.540;18.712;2022-09-09T05:37:48;3.25;;;1.50;;
56523;SDS011;42422;47.540;18.712;2022-09-09T05:40:14;5.03;;;1.70;;
56523;SDS011;42422;47.540;18.712;2022-09-09T05:42:39;3.75;;;1.67;;
56523;SDS011;42422;47.540;18.712;2022-09-09T05:45:06;2.42;;;1.63;;
56523;SDS011;42422;47.540;18.712;2022-09-09T05:47:32;4.80;;;1.70;;
56523;SDS011;42422;47.540;18.712;2022-09-09T05:49:58;2.28;;;1.80;;
56523;SDS011;42422;47.540;18.712;2022-09-09T05:52:23;2.92;;;1.38;;
56523;SDS011;42422;47.540;18.712;2022-09-09T05:54:50;3.00;;;1.80;;
56523;SDS011;42422;47.540;18.712;2022-09-09T05:57:16;2.10;;;1.55;;
56523;SDS011;42422;47.540;18.712;2022-09-09T05:59:41;2.95;;;1.65;;
56523;SDS011;42422;47.540;18.712;2022-09-09T06:02:08;4.07;;;1.58;;
56523;SDS011;42422;47.540;18.712;2022-09-09T06:04:33;2.13;;;1.42;;
56523;SDS011;42422;47.540;18.712;2022-09-09T06:06:59;1.70;;;1.25;;
56523;SDS011;42422;47.540;18.712;2022-09-09T06:09:25;2.60;;;1.52;;
56523;SDS011;42422;47.540;18.712;2022-09-09T06:11:50;2.55;;;1.40;;
56523;SDS011;42422;47.540;18.712;2022-09-09T06:14:15;2.72;;;1.50;;
56523;SDS011;42422;47.540;18.712;2022-09-09T06:16:42;2.78;;;1.45;;
56523;SDS011;42422;47.540;18.712;2022-09-09T06:19:09;2.25;;;1.50;;
56523;SDS011;42422;47.540;18.712;2022-09-09T06:21:35;4.13;;;1.40;;
56523;SDS011;42422;47.540;18.712;2022-09-09T06:24:02;3.83;;;1.60;;
56523;SDS011;42422;47.540;18.712;2022-09-09T06:26:29;1.98;;;1.42;;
56523;SDS011;42422;47.540;18.712;2022-09-09T06:28:59;3.20;;;1.33;;
56523;SDS011;42422;47.540;18.712;2022-09-09T06:31:25;3.35;;;1.50;;
56523;SDS011;42422;47.540;18.712;2022-09-09T06:33:53;1.77;;;1.17;;
56523;SDS011;42422;47.540;18.712;2022-09-09T06:36:24;1.95;;;1.20;;
56523;SDS011;42422;47.540;18.712;2022-09-09T06:38:54;1.33;;;1.02;;
56523;SDS011;42422;47.540;18.712;2022-09-09T06:41:20;1.77;;;1.05;;
56523;SDS011;42422;47.540;18.712;2022-09-09T06:43:47;2.28;;;1.25;;
56523;SDS011;42422;47.540;18.712;2022-09-09T06:46:13;1.98;;;1.27;;
56523;SDS011;42422;47.540;18.712;2022-09-09T06:48:41;2.10;;;1.20;;
56523;SDS011;42422;47.540;18.712;2022-09-09T06:51:17;2.17;;;1.40;;
56523;SDS011;42422;47.540;18.712;2022-09-09T06:53:44;3.47;;;1.33;;
56523;SDS011;42422;47.540;18.712;2022-09-09T06:58:39;1.90;;;1.35;;
56523;SDS011;42422;47.540;18.712;2022-09-09T07:01:09;2.22;;;1.40;;
56523;SDS011;42422;47.540;18.712;2022-09-09T07:03:39;1.75;;;1.15;;
56523;SDS011;42422;47.540;18.712;2022-09-09T07:06:05;4.68;;;1.67;;
56523;SDS011;42422;47.540;18.712;2022-09-09T07:08:32;2.08;;;1.20;;
56523;SDS011;42422;47.540;18.712;2022-09-09T07:11:02;2.13;;;1.58;;
56523;SDS011;42422;47.540;18.712;2022-09-09T07:13:31;2.72;;;1.33;;
56523;SDS011;42422;47.540;18.712;2022-09-09T07:16:07;2.42;;;1.35;;
56523;SDS011;42422;47.540;18.712;2022-09-09T07:18:34;2.10;;;1.60;;
56523;SDS011;42422;47.540;18.712;2022-09-09T07:21:00;2.40;;;1.63;;
56523;SDS011;42422;47.540;18.712;2022-09-09T07:23:27;2.05;;;1.23;;
56523;SDS011;42422;47.540;18.712;2022-09-09T07:25:53;1.52;;;1.10;;
56523;SDS011;42422;47.540;18.712;2022-09-09T07:28:18;2.05;;;1.08;;
56523;SDS011;42422;47.540;18.712;2022-09-09T07:30:52;2.13;;;1.20;;
56523;SDS011;42422;47.540;18.712;2022-09-09T07:33:18;1.67;;;1.10;;
56523;SDS011;42422;47.540;18.712;2022-09-09T07:35:45;1.48;;;0.98;;
56523;SDS011;42422;47.540;18.712;2022-09-09T07:38:10;3.33;;;1.15;;
56523;SDS011;42422;47.540;18.712;2022-09-09T07:40:36;1.77;;;1.00;;
56523;SDS011;42422;47.540;18.712;2022-09-09T07:43:01;1.70;;;1.10;;
56523;SDS011;42422;47.540;18.712;2022-09-09T07:45:26;1.77;;;1.10;;
56523;SDS011;42422;47.540;18.712;2022-09-09T07:47:53;1.35;;;1.00;;
56523;SDS011;42422;47.540;18.712;2022-09-09T07:50:18;1.30;;;0.88;;
56523;SDS011;42422;47.540;18.712;2022-09-09T07:52:44;1.92;;;1.30;;
56523;SDS011;42422;47.540;18.712;2022-09-09T07:55:09;4.38;;;1.17;;
56523;SDS011;42422;47.540;18.712;2022-09-09T07:57:35;2.10;;;1.13;;
56523;SDS011;42422;47.540;18.712;2022-09-09T08:00:01;1.77;;;1.25;;
56523;SDS011;42422;47.540;18.712;2022-09-09T08:02:27;1.67;;;1.20;;
56523;SDS011;42422;47.540;18.712;2022-09-09T08:04:54;1.20;;;0.88;;
56523;SDS011;42422;47.540;18.712;2022-09-09T08:07:19;2.05;;;1.42;;
56523;SDS011;42422;47.540;18.712;2022-09-09T08:09:46;2.10;;;0.93;;
56523;SDS011;42422;47.540;18.712;2022-09-09T08:12:11;2.08;;;1.10;;
56523;SDS011;42422;47.540;18.712;2022-09-09T08:14:38;3.15;;;1.20;;
56523;SDS011;42422;47.540;18.712;2022-09-09T08:17:04;1.67;;;0.90;;
56523;SDS011;42422;47.540;18.712;2022-09-09T08:19:29;1.40;;;1.00;;
56523;SDS011;42422;47.540;18.712;2022-09-09T08:21:55;2.50;;;1.10;;
56523;SDS011;42422;47.540;18.712;2022-09-09T08:24:20;2.80;;;0.90;;
56523;SDS011;42422;47.540;18.712;2022-09-09T08:26:47;1.38;;;0.95;;
56523;SDS011;42422;47.540;18.712;2022-09-09T08:29:14;1.45;;;0.85;;
56523;SDS011;42422;47.540;18.712;2022-09-09T08:31:40;2.13;;;0.90;;
56523;SDS011;42422;47.540;18.712;2022-09-09T08:34:10;1.25;;;0.85;;
56523;SDS011;42422;47.540;18.712;2022-09-09T08:36:37;1.60;;;0.80;;
56523;SDS011;42422;47.540;18.712;2022-09-09T08:39:04;2.75;;;1.10;;
56523;SDS011;42422;47.540;18.712;2022-09-09T08:49:22;3.58;;;1.00;;
56523;SDS011;42422;47.540;18.712;2022-09-09T08:52:11;1.30;;;0.88;;
56523;SDS011;42422;47.540;18.712;2022-09-09T08:54:38;1.05;;;0.80;;
56523;SDS011;42422;47.540;18.712;2022-09-09T08:57:05;1.30;;;0.63;;
56523;SDS011;42422;47.540;18.712;2022-09-09T08:59:36;1.13;;;0.90;;
56523;SDS011;42422;47.540;18.712;2022-09-09T09:02:05;1.40;;;0.75;;
56523;SDS011;42422;47.540;18.712;2022-09-09T09:05:03;2.40;;;0.70;;
56523;SDS011;42422;47.540;18.712;2022-09-09T09:07:35;1.10;;;0.68;;
56523;SDS011;42422;47.540;18.712;2022-09-09T09:10:25;1.33;;;0.90;;
56523;SDS011;42422;47.540;18.712;2022-09-09T09:12:55;1.25;;;0.80;;
56523;SDS011;42422;47.540;18.712;2022-09-09T09:15:25;1.33;;;0.80;;
56523;SDS011;42422;47.540;18.712;2022-09-09T09:17:52;0.98;;;0.70;;
56523;SDS011;42422;47.540;18.712;2022-09-09T09:20:18;1.50;;;0.95;;
56523;SDS011;42422;47.540;18.712;2022-09-09T09:22:48;1.77;;;1.00;;
56523;SDS011;42422;47.540;18.712;2022-09-09T09:28:17;1.08;;;0.60;;
56523;SDS011;42422;47.540;18.712;2022-09-09T09:30:52;2.72;;;0.95;;
56523;SDS011;42422;47.540;18.712;2022-09-09T09:33:36;0.90;;;0.73;;
56523;SDS011;42422;47.540;18.712;2022-09-09T09:36:11;1.20;;;0.85;;
56523;SDS011;42422;47.540;18.712;2022-09-09T09:38:40;2.05;;;0.65;;
56523;SDS011;42422;47.540;18.712;2022-09-09T09:41:43;1.23;;;0.60;;
56523;SDS011;42422;47.540;18.712;2022-09-09T09:44:25;0.80;;;0.70;;
56523;SDS011;42422;47.540;18.712;2022-09-09T09:46:50;0.60;;;0.50;;
56523;SDS011;42422;47.540;18.712;2022-09-09T09:49:16;1.50;;;0.80;;
56523;SDS011;42422;47.540;18.712;2022-09-09T09:51:42;1.13;;;0.70;;
56523;SDS011;42422;47.540;18.712;2022-09-09T09:56:39;1.77;;;0.60;;
56523;SDS011;42422;47.540;18.712;2022-09-09T09:59:10;1.25;;;0.80;;
56523;SDS011;42422;47.540;18.712;2022-09-09T10:01:45;6.75;;;0.90;;
56523;SDS011;42422;47.540;18.712;2022-09-09T10:04:15;2.40;;;0.63;;
56523;SDS011;42422;47.540;18.712;2022-09-09T10:06:43;0.55;;;0.43;;
56523;SDS011;42422;47.540;18.712;2022-09-09T10:14:50;1.50;;;0.77;;
56523;SDS011;42422;47.540;18.712;2022-09-09T10:17:41;0.88;;;0.60;;
56523;SDS011;42422;47.540;18.712;2022-09-09T10:26:30;0.30;;;0.30;;
56523;SDS011;42422;47.540;18.712;2022-09-09T10:29:16;0.68;;;0.50;;
56523;SDS011;42422;47.540;18.712;2022-09-09T10:40:11;2.95;;;0.70;;
56523;SDS011;42422;47.540;18.712;2022-09-09T10:42:46;0.30;;;0.30;;
56523;SDS011;42422;47.540;18.712;2022-09-09T10:51:33;0.95;;;0.47;;
56523;SDS011;42422;47.540;18.712;2022-09-09T10:54:13;1.15;;;0.50;;
56523;SDS011;42422;47.540;18.712;2022-09-09T10:56:48;1.00;;;0.70;;
56523;SDS011;42422;47.540;18.712;2022-09-09T10:59:20;0.60;;;0.50;;
56523;SDS011;42422;47.540;18.712;2022-09-09T11:04:27;0.82;;;0.43;;
56523;SDS011;42422;47.540;18.712;2022-09-09T11:06:57;1.35;;;0.60;;
56523;SDS011;42422;47.540;18.712;2022-09-09T11:09:27;0.50;;;0.47;;
56523;SDS011;42422;47.540;18.712;2022-09-09T11:11:55;5.82;;;0.80;;
56523;SDS011;42422;47.540;18.712;2022-09-09T11:14:22;1.58;;;0.60;;
56523;SDS011;42422;47.540;18.712;2022-09-09T11:16:53;1.27;;;0.70;;
56523;SDS011;42422;47.540;18.712;2022-09-09T11:19:39;0.85;;;0.60;;
56523;SDS011;42422;47.540;18.712;2022-09-09T11:22:07;0.73;;;0.60;;
56523;SDS011;42422;47.540;18.712;2022-09-09T11:30:11;1.20;;;0.70;;
56523;SDS011;42422;47.540;18.712;2022-09-09T11:40:42;0.57;;;0.50;;
56523;SDS011;42422;47.540;18.712;2022-09-09T11:43:09;1.05;;;0.70;;
56523;SDS011;42422;47.540;18.712;2022-09-09T11:45:37;2.25;;;0.70;;
56523;SDS011;42422;47.540;18.712;2022-09-09T11:48:04;0.82;;;0.60;;
56523;SDS011;42422;47.540;18.712;2022-09-09T11:50:34;0.65;;;0.50;;
56523;SDS011;42422;47.540;18.712;2022-09-09T11:55:39;4.05;;;0.85;;
56523;SDS011;42422;47.540;18.712;2022-09-09T12:00:43;2.40;;;0.70;;
56523;SDS011;42422;47.540;18.712;2022-09-09T12:08:53;1.35;;;0.70;;
56523;SDS011;42422;47.540;18.712;2022-09-09T12:11:26;0.70;;;0.57;;
56523;SDS011;42422;47.540;18.712;2022-09-09T12:13:56;0.50;;;0.50;;
56523;SDS011;42422;47.540;18.712;2022-09-09T12:16:36;1.10;;;0.63;;
56523;SDS011;42422;47.540;18.712;2022-09-09T12:19:14;0.85;;;0.60;;
56523;SDS011;42422;47.540;18.712;2022-09-09T12:24:16;2.40;;;0.60;;
56523;SDS011;42422;47.540;18.712;2022-09-09T12:26:51;2.40;;;0.80;;
56523;SDS011;42422;47.540;18.712;2022-09-09T12:29:26;2.40;;;1.20;;
56523;SDS011;42422;47.540;18.712;2022-09-09T12:31:56;1.25;;;0.68;;
56523;SDS011;42422;47.540;18.712;2022-09-09T12:35:32;1.40;;;0.80;;
56523;SDS011;42422;47.540;18.712;2022-09-09T12:37:48;1.17;;;0.77;;
56523;SDS011;42422;47.540;18.712;2022-09-09T12:40:21;0.80;;;0.63;;
56523;SDS011;42422;47.540;18.712;2022-09-09T12:42:51;1.33;;;0.60;;
56523;SDS011;42422;47.540;18.712;2022-09-09T12:45:18;0.82;;;0.60;;
56523;SDS011;42422;47.540;18.712;2022-09-09T12:47:53;0.60;;;0.50;;
56523;SDS011;42422;47.540;18.712;2022-09-09T12:52:57;0.80;;;0.60;;
56523;SDS011;42422;47.540;18.712;2022-09-09T12:55:27;2.33;;;0.60;;
56523;SDS011;42422;47.540;18.712;2022-09-09T12:57:55;0.75;;;0.60;;
56523;SDS011;42422;47.540;18.712;2022-09-09T13:00:22;0.75;;;0.60;;
56523;SDS011;42422;47.540;18.712;2022-09-09T13:02:58;0.52;;;0.45;;
56523;SDS011;42422;47.540;18.712;2022-09-09T13:05:26;0.90;;;0.50;;
56523;SDS011;42422;47.540;18.712;2022-09-09T13:08:07;0.80;;;0.57;;
56523;SDS011;42422;47.540;18.712;2022-09-09T13:10:55;0.38;;;0.38;;
56523;SDS011;42422;47.540;18.712;2022-09-09T13:13:26;0.93;;;0.50;;
56523;SDS011;42422;47.540;18.712;2022-09-09T13:15:56;1.15;;;0.65;;
56523;SDS011;42422;47.540;18.712;2022-09-09T13:18:33;0.63;;;0.55;;
56523;SDS011;42422;47.540;18.712;2022-09-09T13:20:59;2.30;;;0.65;;
56523;SDS011;42422;47.540;18.712;2022-09-09T13:23:32;0.80;;;0.55;;
56523;SDS011;42422;47.540;18.712;2022-09-09T13:26:00;1.17;;;0.60;;
56523;SDS011;42422;47.540;18.712;2022-09-09T13:28:29;1.40;;;0.70;;
56523;SDS011;42422;47.540;18.712;2022-09-09T13:31:03;1.73;;;0.65;;
56523;SDS011;42422;47.540;18.712;2022-09-09T13:36:06;0.70;;;0.55;;
56523;SDS011;42422;47.540;18.712;2022-09-09T13:38:55;0.77;;;0.60;;
56523;SDS011;42422;47.540;18.712;2022-09-09T13:41:34;1.52;;;0.60;;
56523;SDS011;42422;47.540;18.712;2022-09-09T13:44:01;0.95;;;0.60;;
56523;SDS011;42422;47.540;18.712;2022-09-09T13:46:38;1.10;;;0.47;;
56523;SDS011;42422;47.540;18.712;2022-09-09T13:51:38;0.77;;;0.60;;
56523;SDS011;42422;47.540;18.712;2022-09-09T13:54:09;3.47;;;0.40;;
56523;SDS011;42422;47.540;18.712;2022-09-09T13:56:35;0.28;;;0.28;;
56523;SDS011;42422;47.540;18.712;2022-09-09T13:59:02;1.52;;;0.50;;
56523;SDS011;42422;47.540;18.712;2022-09-09T14:01:29;0.50;;;0.43;;
56523;SDS011;42422;47.540;18.712;2022-09-09T14:03:55;0.70;;;0.50;;
56523;SDS011;42422;47.540;18.712;2022-09-09T14:06:21;1.90;;;0.68;;
56523;SDS011;42422;47.540;18.712;2022-09-09T14:08:49;0.57;;;0.38;;
56523;SDS011;42422;47.540;18.712;2022-09-09T14:11:15;0.80;;;0.50;;
56523;SDS011;42422;47.540;18.712;2022-09-09T14:13:41;1.20;;;0.55;;
56523;SDS011;42422;47.540;18.712;2022-09-09T14:16:06;0.70;;;0.45;;
56523;SDS011;42422;47.540;18.712;2022-09-09T14:18:32;2.55;;;0.60;;
56523;SDS011;42422;47.540;18.712;2022-09-09T14:20:58;0.40;;;0.40;;
56523;SDS011;42422;47.540;18.712;2022-09-09T14:23:24;0.43;;;0.43;;
56523;SDS011;42422;47.540;18.712;2022-09-09T14:25:49;1.23;;;0.50;;
56523;SDS011;42422;47.540;18.712;2022-09-09T14:28:15;0.93;;;0.60;;
56523;SDS011;42422;47.540;18.712;2022-09-09T14:30:41;1.55;;;0.70;;
56523;SDS011;42422;47.540;18.712;2022-09-09T14:33:09;1.42;;;0.55;;
56523;SDS011;42422;47.540;18.712;2022-09-09T14:35:36;1.33;;;0.82;;
56523;SDS011;42422;47.540;18.712;2022-09-09T14:38:02;0.60;;;0.50;;
56523;SDS011;42422;47.540;18.712;2022-09-09T14:40:28;1.77;;;0.50;;
56523;SDS011;42422;47.540;18.712;2022-09-09T14:42:53;1.35;;;0.63;;
56523;SDS011;42422;47.540;18.712;2022-09-09T14:45:19;3.80;;;0.70;;
56523;SDS011;42422;47.540;18.712;2022-09-09T14:47:46;2.67;;;0.60;;
56523;SDS011;42422;47.540;18.712;2022-09-09T14:50:11;1.30;;;0.55;;
56523;SDS011;42422;47.540;18.712;2022-09-09T14:52:37;0.60;;;0.43;;
56523;SDS011;42422;47.540;18.712;2022-09-09T14:55:03;2.67;;;0.60;;
56523;SDS011;42422;47.540;18.712;2022-09-09T14:57:30;0.55;;;0.47;;
56523;SDS011;42422;47.540;18.712;2022-09-09T14:59:56;1.63;;;0.50;;
56523;SDS011;42422;47.540;18.712;2022-09-09T15:02:21;0.98;;;0.60;;
56523;SDS011;42422;47.540;18.712;2022-09-09T15:04:47;1.40;;;0.70;;
56523;SDS011;42422;47.540;18.712;2022-09-09T15:07:14;0.75;;;0.50;;
56523;SDS011;42422;47.540;18.712;2022-09-09T15:09:40;1.30;;;0.60;;
56523;SDS011;42422;47.540;18.712;2022-09-09T15:12:05;0.85;;;0.70;;
56523;SDS011;42422;47.540;18.712;2022-09-09T15:14:31;1.10;;;0.60;;
56523;SDS011;42422;47.540;18.712;2022-09-09T15:16:56;1.20;;;0.75;;
56523;SDS011;42422;47.540;18.712;2022-09-09T15:19:22;1.20;;;0.70;;
56523;SDS011;42422;47.540;18.712;2022-09-09T15:21:47;2.55;;;0.88;;
56523;SDS011;42422;47.540;18.712;2022-09-09T15:24:13;1.25;;;0.73;;
56523;SDS011;42422;47.540;18.712;2022-09-09T15:26:38;1.20;;;0.80;;
56523;SDS011;42422;47.540;18.712;2022-09-09T15:29:04;1.52;;;0.80;;
56523;SDS011;42422;47.540;18.712;2022-09-09T15:31:33;1.23;;;0.68;;
56523;SDS011;42422;47.540;18.712;2022-09-09T15:34:03;1.08;;;0.75;;
56523;SDS011;42422;47.540;18.712;2022-09-09T15:36:39;0.80;;;0.60;;
56523;SDS011;42422;47.540;18.712;2022-09-09T15:41:32;1.00;;;0.65;;
56523;SDS011;42422;47.540;18.712;2022-09-09T15:43:58;0.60;;;0.40;;
56523;SDS011;42422;47.540;18.712;2022-09-09T15:46:24;0.88;;;0.50;;
56523;SDS011;42422;47.540;18.712;2022-09-09T15:49:18;1.05;;;0.70;;
56523;SDS011;42422;47.540;18.712;2022-09-09T15:51:51;4.07;;;1.27;;
56523;SDS011;42422;47.540;18.712;2022-09-09T15:54:18;1.27;;;0.60;;
56523;SDS011;42422;47.540;18.712;2022-09-09T15:56:49;1.85;;;0.60;;
56523;SDS011;42422;47.540;18.712;2022-09-09T15:59:16;0.98;;;0.60;;
56523;SDS011;42422;47.540;18.712;2022-09-09T16:01:41;3.78;;;0.73;;
56523;SDS011;42422;47.540;18.712;2022-09-09T16:04:08;0.85;;;0.63;;
56523;SDS011;42422;47.540;18.712;2022-09-09T16:06:33;4.38;;;0.60;;
56523;SDS011;42422;47.540;18.712;2022-09-09T16:08:59;0.70;;;0.50;;
56523;SDS011;42422;47.540;18.712;2022-09-09T16:11:29;1.98;;;0.88;;
56523;SDS011;42422;47.540;18.712;2022-09-09T16:13:56;1.40;;;1.10;;
56523;SDS011;42422;47.540;18.712;2022-09-09T16:16:24;0.80;;;0.57;;
56523;SDS011;42422;47.540;18.712;2022-09-09T16:18:52;1.13;;;0.60;;
56523;SDS011;42422;47.540;18.712;2022-09-09T16:21:26;1.88;;;0.50;;
56523;SDS011;42422;47.540;18.712;2022-09-09T16:23:56;2.58;;;0.80;;
56523;SDS011;42422;47.540;18.712;2022-09-09T16:26:24;2.05;;;0.80;;
56523;SDS011;42422;47.540;18.712;2022-09-09T16:28:50;0.82;;;0.60;;
56523;SDS011;42422;47.540;18.712;2022-09-09T16:31:17;1.15;;;0.55;;
56523;SDS011;42422;47.540;18.712;2022-09-09T16:33:46;1.42;;;0.77;;
56523;SDS011;42422;47.540;18.712;2022-09-09T16:36:13;1.52;;;1.00;;
56523;SDS011;42422;47.540;18.712;2022-09-09T16:38:40;4.07;;;1.00;;
56523;SDS011;42422;47.540;18.712;2022-09-09T16:41:06;1.45;;;0.80;;
56523;SDS011;42422;47.540;18.712;2022-09-09T16:43:33;1.42;;;1.00;;
56523;SDS011;42422;47.540;18.712;2022-09-09T16:46:00;1.38;;;0.60;;
56523;SDS011;42422;47.540;18.712;2022-09-09T16:48:26;2.05;;;0.65;;
56523;SDS011;42422;47.540;18.712;2022-09-09T16:51:01;4.63;;;1.10;;
56523;SDS011;42422;47.540;18.712;2022-09-09T16:53:31;2.45;;;0.80;;